Terminal Aerodrome Forecast
Issued by NWS

Home | Current Version | Previous Version | Graphics & Text | Print | Product List | Glossary On
Versions: 1 2 3 4 5 6 7 8 9 10 11 12 13 14 15 16 17 18 19 20 21 22 23 24 25
649
FTUS43 KABR 071603 AAA
TAFPIR
TAF AMD
KPIR 071603Z 0716/0812 30021G29KT P6SM BKN015
     FM071800 31021G30KT P6SM BKN040
     FM080200 31019G26KT P6SM SCT080=

USA.gov is the U.S. government's official web portal to all federal, state and local government web resources and services.